createdAt,value
2023-04-04T00:00:43.494Z,9.70
2023-04-04T00:03:11.834Z,9.70
2023-04-04T00:05:41.766Z,9.70
2023-04-04T00:08:10.015Z,9.80
2023-04-04T00:10:38.410Z,9.80
2023-04-04T00:13:07.679Z,9.80
2023-04-04T00:15:36.543Z,9.80
2023-04-04T00:18:04.967Z,9.80
2023-04-04T00:20:33.177Z,9.80
2023-04-04T00:23:02.686Z,9.90
2023-04-04T00:25:30.831Z,9.90
2023-04-04T00:28:00.747Z,9.90
2023-04-04T00:30:29.619Z,9.90
2023-04-04T00:32:58.194Z,9.90
2023-04-04T00:35:26.771Z,9.90
2023-04-04T00:37:54.986Z,9.90
2023-04-04T00:40:24.545Z,9.90
2023-04-04T00:42:53.130Z,9.90
2023-04-04T00:45:21.628Z,9.90
2023-04-04T00:47:51.593Z,9.90
2023-04-04T00:50:19.949Z,9.90
2023-04-04T00:52:48.077Z,9.90
2023-04-04T00:55:16.600Z,9.90
2023-04-04T00:57:46.349Z,9.90
2023-04-04T01:00:16.522Z,9.90
2023-04-04T01:02:44.782Z,9.80
2023-04-04T01:05:13.602Z,9.80
2023-04-04T01:07:42.774Z,9.70
2023-04-04T01:10:12.961Z,9.70
2023-04-04T01:12:42.804Z,9.70
2023-04-04T01:15:12.984Z,9.70
2023-04-04T01:17:42.014Z,9.60
2023-04-04T01:20:14.166Z,9.50
2023-04-04T01:22:43.345Z,9.50
2023-04-04T01:25:13.156Z,9.50
2023-04-04T01:27:42.677Z,9.40
2023-04-04T01:30:12.433Z,9.40
2023-04-04T01:32:46.336Z,9.40
2023-04-04T01:35:27.401Z,9.40
2023-04-04T01:38:07.839Z,9.40
2023-04-04T01:40:37.477Z,9.30
2023-04-04T01:43:07.374Z,9.30
2023-04-04T01:45:36.046Z,9.30
2023-04-04T01:48:04.152Z,9.30
2023-04-04T01:50:32.354Z,9.30
2023-04-04T01:53:00.538Z,9.20
2023-04-04T01:55:28.677Z,9.10
2023-04-04T01:57:57.129Z,9.00
2023-04-04T02:00:26.833Z,9.00
2023-04-04T02:02:55.044Z,8.90
2023-04-04T02:05:23.625Z,8.90
2023-04-04T02:07:51.730Z,8.80
2023-04-04T02:10:19.870Z,8.70
2023-04-04T02:12:48.179Z,8.70
2023-04-04T02:15:16.927Z,8.60
2023-04-04T02:17:50.601Z,8.50
2023-04-04T02:20:19.335Z,8.40
2023-04-04T02:22:53.024Z,8.30
2023-04-04T02:25:21.372Z,8.30
2023-04-04T02:27:49.848Z,8.30
2023-04-04T02:30:19.508Z,8.10
2023-04-04T02:32:50.370Z,8.10
2023-04-04T02:35:18.634Z,8.10
2023-04-04T02:37:48.119Z,8.10
2023-04-04T02:40:16.480Z,8.10
2023-04-04T02:42:45.575Z,8.20
2023-04-04T02:45:14.888Z,8.20
2023-04-04T02:47:43.764Z,8.30
2023-04-04T02:50:13.436Z,8.30
2023-04-04T02:52:41.553Z,8.30
2023-04-04T02:55:10.531Z,8.40
2023-04-04T02:57:38.716Z,8.40
2023-04-04T03:00:08.376Z,8.40
2023-04-04T03:02:36.610Z,8.50
2023-04-04T03:05:05.085Z,8.50
2023-04-04T03:07:34.620Z,8.50
2023-04-04T03:10:02.745Z,8.60
2023-04-04T03:12:30.878Z,8.60
2023-04-04T03:14:59.005Z,8.60
2023-04-04T03:17:27.572Z,8.60
2023-04-04T03:19:55.736Z,8.60
2023-04-04T03:22:23.912Z,8.60
2023-04-04T03:24:53.407Z,8.60
2023-04-04T03:27:22.109Z,8.70
2023-04-04T03:29:50.379Z,8.70
2023-04-04T03:32:19.310Z,8.70
2023-04-04T03:34:47.485Z,8.60
2023-04-04T03:37:15.632Z,8.60
2023-04-04T03:39:43.817Z,8.60
2023-04-04T03:42:13.497Z,8.60
2023-04-04T03:44:41.930Z,8.60
2023-04-04T03:47:10.165Z,8.70
2023-04-04T03:49:38.355Z,8.70
2023-04-04T03:52:07.066Z,8.70
2023-04-04T03:54:35.709Z,8.70
2023-04-04T03:57:03.936Z,8.70
2023-04-04T03:59:33.426Z,8.70
2023-04-04T04:02:01.613Z,8.70
2023-04-04T04:04:29.823Z,8.70
2023-04-04T04:06:58.609Z,8.70
2023-04-04T04:09:27.160Z,8.70
2023-04-04T04:11:55.332Z,8.70
2023-04-04T04:14:23.606Z,8.70
2023-04-04T04:16:53.519Z,8.70
2023-04-04T04:19:21.688Z,8.70
2023-04-04T04:21:49.810Z,8.70
2023-04-04T04:24:18.161Z,8.70
2023-04-04T04:26:46.293Z,8.70
2023-04-04T04:29:14.429Z,8.70
2023-04-04T04:31:42.589Z,8.70
2023-04-04T04:34:12.150Z,8.60
2023-04-04T04:36:40.292Z,8.60
2023-04-04T04:39:08.496Z,8.60
2023-04-04T04:41:36.769Z,8.50
2023-04-04T04:44:04.883Z,8.50
2023-04-04T04:46:33.128Z,8.50
2023-04-04T04:49:01.368Z,8.50
2023-04-04T04:51:30.990Z,8.40
2023-04-04T04:53:59.303Z,8.40
2023-04-04T04:56:27.431Z,8.40
2023-04-04T04:58:55.556Z,8.40
2023-04-04T05:01:23.794Z,8.30
2023-04-04T05:03:53.349Z,8.30
2023-04-04T05:06:22.121Z,8.30
2023-04-04T05:08:51.822Z,8.20
2023-04-04T05:11:19.990Z,8.30
2023-04-04T05:13:48.406Z,8.20
2023-04-04T05:16:16.684Z,8.20
2023-04-04T05:18:44.908Z,8.30
2023-04-04T05:21:13.390Z,8.30
2023-04-04T05:23:41.782Z,8.30
2023-04-04T05:26:11.285Z,8.30
2023-04-04T05:28:40.620Z,8.30
2023-04-04T05:31:08.805Z,8.40
2023-04-04T05:33:36.986Z,8.50
2023-04-04T05:36:05.320Z,8.50
2023-04-04T05:38:33.408Z,8.60
2023-04-04T05:41:01.588Z,8.60
2023-04-04T05:43:31.232Z,8.70
2023-04-04T05:45:59.442Z,8.70
2023-04-04T05:48:27.606Z,8.80
2023-04-04T05:50:55.740Z,8.80
2023-04-04T05:53:23.981Z,8.70
2023-04-04T05:55:54.107Z,8.70
2023-04-04T05:58:22.296Z,8.70
2023-04-04T06:00:51.768Z,8.80
2023-04-04T06:03:21.855Z,8.80
2023-04-04T06:05:53.360Z,8.80
2023-04-04T06:08:21.642Z,8.90
2023-04-04T06:10:49.732Z,8.90
2023-04-04T06:13:17.905Z,8.90
2023-04-04T06:15:46.075Z,8.80
2023-04-04T06:18:16.720Z,8.80
2023-04-04T06:20:45.003Z,8.90
2023-04-04T06:23:13.555Z,8.90
2023-04-04T06:25:41.809Z,8.90
2023-04-04T06:28:11.095Z,8.90
2023-04-04T06:30:39.673Z,8.80
2023-04-04T06:33:07.993Z,8.80
2023-04-04T06:35:37.486Z,8.70
2023-04-04T06:38:05.893Z,8.70
2023-04-04T06:40:33.995Z,8.80
2023-04-04T06:43:02.640Z,8.80
2023-04-04T06:45:33.537Z,8.80
2023-04-04T06:48:01.756Z,8.80
2023-04-04T06:50:33.660Z,8.90
2023-04-04T06:53:03.515Z,8.90
2023-04-04T06:55:31.699Z,8.80
2023-04-04T06:57:59.784Z,8.90
2023-04-04T07:00:27.978Z,8.90
2023-04-04T07:03:00.254Z,8.90
2023-04-04T07:05:28.576Z,9.00
2023-04-04T07:07:57.300Z,9.00
2023-04-04T07:10:27.491Z,8.90
2023-04-04T07:12:55.622Z,9.00
2023-04-04T07:15:23.768Z,9.00
2023-04-04T07:17:52.249Z,8.90
2023-04-04T07:20:20.551Z,8.90
2023-04-04T07:22:50.365Z,8.90
2023-04-04T07:25:18.648Z,8.90
2023-04-04T07:27:48.142Z,9.00
2023-04-04T07:30:16.913Z,9.00
2023-04-04T07:32:45.223Z,8.90
2023-04-04T07:35:13.870Z,8.90
2023-04-04T07:37:42.009Z,8.90
2023-04-04T07:40:11.228Z,8.90
2023-04-04T07:42:45.168Z,8.90
2023-04-04T07:45:15.234Z,8.80
2023-04-04T07:47:44.988Z,8.80
2023-04-04T07:50:14.223Z,8.90
2023-04-04T07:52:42.495Z,8.90
2023-04-04T07:55:11.039Z,8.90
2023-04-04T07:57:40.051Z,8.90
2023-04-04T08:00:10.211Z,9.00
2023-04-04T08:02:40.099Z,9.00
2023-04-04T08:05:09.880Z,9.00
2023-04-04T08:07:38.056Z,9.00
2023-04-04T08:10:07.351Z,8.90
2023-04-04T08:12:35.523Z,9.00
2023-04-04T08:15:03.743Z,8.90
2023-04-04T08:17:31.906Z,8.90
2023-04-04T08:20:01.447Z,8.90
2023-04-04T08:22:29.585Z,8.90
2023-04-04T08:24:57.922Z,8.90
2023-04-04T08:27:25.993Z,8.90
2023-04-04T08:29:54.158Z,8.90
2023-04-04T08:32:23.729Z,8.90
2023-04-04T08:34:52.274Z,8.90
2023-04-04T08:37:22.322Z,8.90
2023-04-04T08:39:50.601Z,9.00
2023-04-04T08:42:21.713Z,9.00
2023-04-04T08:44:53.693Z,9.10
2023-04-04T08:47:22.733Z,9.10
2023-04-04T08:49:52.564Z,9.20
2023-04-04T08:52:26.521Z,9.20
2023-04-04T08:54:55.110Z,9.20
2023-04-04T08:57:23.452Z,9.20
2023-04-04T08:59:51.747Z,9.10
2023-04-04T09:02:25.854Z,9.10
2023-04-04T09:05:05.380Z,9.10
2023-04-04T09:07:38.948Z,9.20
2023-04-04T09:10:10.625Z,9.20
2023-04-04T09:12:42.995Z,9.20
2023-04-04T09:15:12.358Z,9.20
2023-04-04T09:17:40.494Z,9.20
2023-04-04T09:20:40.936Z,9.30
2023-04-04T09:23:12.746Z,9.30
2023-04-04T09:26:02.604Z,9.20
2023-04-04T09:28:33.165Z,9.30
2023-04-04T09:31:03.131Z,9.40
2023-04-04T09:33:33.334Z,9.40
2023-04-04T09:36:04.393Z,9.40
2023-04-04T09:38:37.576Z,9.40
2023-04-04T09:41:08.174Z,9.40
2023-04-04T09:43:37.712Z,9.50
2023-04-04T09:46:07.858Z,9.40
2023-04-04T09:48:37.621Z,9.40
2023-04-04T09:51:07.471Z,9.40
2023-04-04T09:53:38.148Z,9.50
2023-04-04T09:56:07.925Z,9.50
2023-04-04T09:58:36.643Z,9.50
2023-04-04T10:01:09.664Z,9.60
2023-04-04T10:03:39.337Z,9.60
2023-04-04T10:06:09.986Z,9.60
2023-04-04T10:08:41.856Z,9.70
2023-04-04T10:11:12.377Z,9.70
2023-04-04T10:13:44.285Z,9.70
2023-04-04T10:16:13.112Z,9.80
2023-04-04T10:18:41.575Z,9.80
2023-04-04T10:23:46.533Z,9.80
2023-04-04T10:26:14.726Z,9.80
2023-04-04T10:28:43.801Z,9.80
2023-04-04T10:31:21.463Z,9.80
2023-04-04T10:33:57.152Z,9.90
2023-04-04T10:36:29.149Z,10.00
2023-04-04T10:39:06.586Z,10.00
2023-04-04T10:41:35.355Z,10.00
2023-04-04T10:44:19.656Z,10.00
2023-04-04T10:46:50.365Z,10.00
2023-04-04T10:49:19.225Z,10.00
2023-04-04T10:51:55.842Z,10.10
2023-04-04T10:54:27.594Z,10.10
2023-04-04T10:57:00.713Z,10.00
2023-04-04T10:59:29.260Z,10.10
2023-04-04T11:01:59.147Z,10.00
2023-04-04T11:04:33.241Z,10.10
2023-04-04T11:07:16.262Z,10.10
2023-04-04T11:09:50.020Z,10.20
2023-04-04T11:12:23.381Z,10.20
2023-04-04T11:14:59.175Z,10.20
2023-04-04T11:17:58.737Z,10.30
2023-04-04T11:20:32.619Z,10.20
2023-04-04T11:23:05.063Z,10.30
2023-04-04T11:25:37.510Z,10.40
2023-04-04T11:28:10.930Z,10.40
2023-04-04T11:30:44.761Z,10.40
2023-04-04T11:33:15.361Z,10.40
2023-04-04T11:35:48.812Z,10.40
2023-04-04T11:38:18.015Z,10.40
2023-04-04T11:40:56.568Z,10.50
2023-04-04T11:43:25.115Z,10.50
2023-04-04T11:45:55.057Z,10.50
2023-04-04T11:48:25.012Z,10.50
2023-04-04T11:50:54.714Z,10.60
2023-04-04T11:53:22.934Z,10.60
2023-04-04T11:55:51.797Z,10.70
2023-04-04T11:58:21.307Z,10.80
2023-04-04T12:00:50.658Z,10.80
2023-04-04T12:03:19.097Z,10.70
2023-04-04T12:05:48.598Z,10.70
2023-04-04T12:08:18.079Z,10.70
2023-04-04T12:10:46.399Z,10.70
2023-04-04T12:13:14.529Z,10.70
2023-04-04T12:15:45.000Z,10.70
2023-04-04T12:18:23.070Z,10.70
2023-04-04T12:20:52.819Z,10.80
2023-04-04T12:23:21.474Z,10.80
2023-04-04T12:25:54.147Z,10.80
2023-04-04T12:28:22.856Z,10.80
2023-04-04T12:30:52.536Z,10.90
2023-04-04T12:33:20.828Z,10.90
2023-04-04T12:35:53.722Z,10.90
2023-04-04T12:38:21.880Z,10.90
2023-04-04T12:40:52.765Z,10.80
2023-04-04T12:43:21.636Z,10.90
2023-04-04T12:45:52.900Z,11.00
2023-04-04T12:48:22.924Z,11.10
2023-04-04T12:50:53.184Z,11.10
2023-04-04T12:53:29.016Z,11.10
2023-04-04T12:56:02.327Z,11.00
2023-04-04T12:58:30.657Z,11.00
2023-04-04T13:01:02.636Z,11.10
2023-04-04T13:03:30.975Z,11.10
2023-04-04T13:06:00.633Z,11.10
2023-04-04T13:08:28.913Z,11.10
2023-04-04T13:11:02.840Z,11.10
2023-04-04T13:13:36.091Z,11.10
2023-04-04T13:16:08.024Z,11.10
2023-04-04T13:18:39.465Z,11.20
2023-04-04T13:21:08.677Z,11.20
2023-04-04T13:23:39.630Z,11.20
2023-04-04T13:26:09.348Z,11.20
2023-04-04T13:28:37.609Z,11.20
2023-04-04T13:31:08.333Z,11.20
2023-04-04T13:33:36.907Z,11.20
2023-04-04T13:36:05.660Z,11.10
2023-04-04T13:38:33.940Z,11.20
2023-04-04T13:41:02.254Z,11.20
2023-04-04T13:43:30.407Z,11.20
2023-04-04T13:45:58.656Z,11.20
2023-04-04T13:48:28.159Z,11.20
2023-04-04T13:50:56.408Z,11.20
2023-04-04T13:53:24.573Z,11.30
2023-04-04T13:56:16.015Z,11.30
2023-04-04T13:58:41.114Z,11.30
2023-04-04T14:01:09.424Z,11.30
2023-04-04T14:03:39.107Z,11.40
2023-04-04T14:06:10.754Z,11.40
2023-04-04T14:08:39.481Z,11.30
2023-04-04T14:11:07.734Z,11.40
2023-04-04T14:13:36.436Z,11.40
2023-04-04T14:16:04.934Z,11.40
2023-04-04T14:18:34.424Z,11.40
2023-04-04T14:21:04.354Z,11.40
2023-04-04T14:23:32.952Z,11.30
2023-04-04T14:26:01.170Z,11.40
2023-04-04T14:28:29.506Z,11.40
2023-04-04T14:30:57.646Z,11.40
2023-04-04T14:33:26.336Z,11.40
2023-04-04T14:35:54.582Z,11.50
2023-04-04T14:38:24.154Z,11.40
2023-04-04T14:40:52.534Z,11.40
2023-04-04T14:43:20.820Z,11.50
2023-04-04T14:45:48.921Z,11.50
2023-04-04T14:48:17.071Z,11.40
2023-04-04T14:50:45.873Z,11.50
2023-04-04T14:53:14.161Z,11.50
2023-04-04T14:55:43.628Z,11.50
2023-04-04T14:58:12.494Z,11.60
2023-04-04T15:00:40.746Z,11.60
2023-04-04T15:03:09.124Z,11.60
2023-04-04T15:05:37.314Z,11.60
2023-04-04T15:08:05.600Z,11.70
2023-04-04T15:10:33.698Z,11.70
2023-04-04T15:13:03.157Z,11.80
2023-04-04T15:15:31.496Z,11.80
2023-04-04T15:17:59.690Z,11.80
2023-04-04T15:20:27.909Z,11.80
2023-04-04T15:22:56.029Z,11.80
2023-04-04T15:25:24.334Z,11.80
2023-04-04T15:27:52.443Z,11.70
2023-04-04T15:30:21.955Z,11.70
2023-04-04T15:32:51.288Z,11.70
2023-04-04T15:35:22.366Z,11.70
2023-04-04T15:37:51.333Z,11.70
2023-04-04T15:40:20.719Z,11.70
2023-04-04T15:42:49.215Z,11.70
2023-04-04T15:45:17.913Z,11.60
2023-04-04T15:47:47.509Z,11.60
2023-04-04T15:50:16.113Z,11.60
2023-04-04T15:52:44.742Z,11.60
2023-04-04T15:55:17.090Z,11.60
2023-04-04T15:57:45.854Z,11.60
2023-04-04T16:00:16.902Z,11.60
2023-04-04T16:02:45.416Z,11.60
2023-04-04T16:05:14.958Z,11.60
2023-04-04T16:07:43.669Z,11.60
2023-04-04T16:10:12.146Z,11.50
2023-04-04T16:12:40.245Z,11.50
2023-04-04T16:15:09.576Z,11.50
2023-04-04T16:17:37.843Z,11.50
2023-04-04T16:20:07.439Z,11.50
2023-04-04T16:22:36.974Z,11.50
2023-04-04T16:25:05.511Z,11.50
2023-04-04T16:27:34.108Z,11.40
2023-04-04T16:30:02.549Z,11.40
2023-04-04T16:32:31.724Z,11.30
2023-04-04T16:35:00.026Z,11.20
2023-04-04T16:37:28.157Z,11.20
2023-04-04T16:40:00.239Z,11.20
2023-04-04T16:42:28.390Z,11.20
2023-04-04T16:44:56.503Z,11.20
2023-04-04T16:47:26.063Z,11.10
2023-04-04T16:49:55.051Z,11.10
2023-04-04T16:52:23.207Z,11.10
2023-04-04T16:54:51.335Z,11.00
2023-04-04T16:57:20.828Z,11.00
2023-04-04T16:59:48.979Z,11.00
2023-04-04T17:02:17.181Z,10.90
2023-04-04T17:04:46.122Z,10.90
2023-04-04T17:07:14.189Z,10.90
2023-04-04T17:09:42.322Z,10.90
2023-04-04T17:12:10.860Z,10.90
2023-04-04T17:14:40.802Z,11.00
2023-04-04T17:17:10.380Z,11.00
2023-04-04T17:19:38.788Z,11.00
2023-04-04T17:22:06.986Z,11.00
2023-04-04T17:24:35.252Z,11.00
2023-04-04T17:27:03.445Z,10.90
2023-04-04T17:29:31.831Z,10.90
2023-04-04T17:32:01.451Z,10.90
2023-04-04T17:34:29.677Z,10.90
2023-04-04T17:36:57.933Z,10.90
2023-04-04T17:39:26.223Z,10.80
2023-04-04T17:41:54.520Z,10.80
2023-04-04T17:44:22.975Z,10.70
2023-04-04T17:46:51.173Z,10.70
2023-04-04T17:49:20.909Z,10.70
2023-04-04T17:51:49.591Z,10.70
2023-04-04T17:54:18.078Z,10.80
2023-04-04T17:56:46.964Z,10.80
2023-04-04T17:59:15.765Z,10.80
2023-04-04T18:01:44.015Z,10.80
2023-04-04T18:04:12.215Z,10.80
2023-04-04T18:06:42.083Z,10.90
2023-04-04T18:09:10.746Z,10.90
2023-04-04T18:11:41.070Z,10.90
2023-04-04T18:14:09.259Z,10.90
2023-04-04T18:16:40.167Z,10.90
2023-04-04T18:19:09.593Z,10.90
2023-04-04T18:21:38.090Z,10.90
2023-04-04T18:24:11.206Z,10.90
2023-04-04T18:26:39.518Z,10.90
2023-04-04T18:29:08.306Z,10.90
2023-04-04T18:31:36.574Z,10.80
2023-04-04T18:34:04.753Z,10.90
2023-04-04T18:36:32.920Z,10.80
2023-04-04T18:39:01.694Z,10.80
2023-04-04T18:41:31.165Z,10.80
2023-04-04T18:43:59.364Z,10.80
2023-04-04T18:46:27.710Z,10.80
2023-04-04T18:48:56.819Z,10.80
2023-04-04T18:51:24.949Z,10.70
2023-04-04T18:53:53.045Z,10.70
2023-04-04T18:56:21.712Z,10.70
2023-04-04T18:58:51.842Z,10.70
2023-04-04T19:01:20.048Z,10.70
2023-04-04T19:03:48.490Z,10.60
2023-04-04T19:06:16.670Z,10.60
2023-04-04T19:08:45.897Z,10.60
2023-04-04T19:11:15.860Z,10.60
2023-04-04T19:13:44.154Z,10.60
2023-04-04T19:16:13.616Z,10.60
2023-04-04T19:18:43.669Z,10.50
2023-04-04T19:21:11.927Z,10.50
2023-04-04T19:23:40.053Z,10.50
2023-04-04T19:26:08.275Z,10.50
2023-04-04T19:28:36.773Z,10.50
2023-04-04T19:31:10.845Z,10.40
2023-04-04T19:33:40.733Z,10.40
2023-04-04T19:36:11.118Z,10.40
2023-04-04T19:38:42.522Z,10.40
2023-04-04T19:41:14.684Z,10.30
2023-04-04T19:43:45.378Z,10.30
2023-04-04T19:46:15.958Z,10.30
2023-04-04T19:48:48.952Z,10.30
2023-04-04T19:51:40.226Z,10.20
2023-04-04T19:54:12.752Z,10.20
2023-04-04T19:56:41.023Z,10.20
2023-04-04T19:59:29.726Z,10.20
2023-04-04T20:02:00.902Z,10.10
2023-04-04T20:04:31.010Z,10.10
2023-04-04T20:06:59.147Z,10.10
2023-04-04T20:09:34.884Z,10.10
2023-04-04T20:12:03.201Z,10.10
2023-04-04T20:14:31.292Z,10.00
2023-04-04T20:16:59.614Z,10.00
2023-04-04T20:19:30.111Z,10.00
2023-04-04T20:21:58.332Z,10.00
2023-04-04T20:24:26.586Z,10.00
2023-04-04T20:26:56.781Z,9.90
2023-04-04T20:29:27.395Z,9.90
2023-04-04T20:31:57.410Z,9.90
2023-04-04T20:34:45.349Z,9.90
2023-04-04T20:37:16.151Z,9.80
2023-04-04T20:39:49.284Z,9.80
2023-04-04T20:42:33.881Z,9.80
2023-04-04T20:45:14.320Z,9.80
2023-04-04T20:47:44.944Z,9.70
2023-04-04T20:50:45.330Z,9.70
2023-04-04T20:53:19.247Z,9.70
2023-04-04T20:55:47.414Z,9.70
2023-04-04T20:58:31.495Z,9.70
2023-04-04T21:01:00.884Z,9.60
2023-04-04T21:03:35.291Z,9.60
2023-04-04T21:06:12.661Z,9.60
2023-04-04T21:08:45.123Z,9.60
2023-04-04T21:11:14.192Z,9.60
2023-04-04T21:13:44.815Z,9.50
2023-04-04T21:16:14.403Z,9.50
2023-04-04T21:18:42.619Z,9.50
2023-04-04T21:21:19.701Z,9.50
2023-04-04T21:23:50.339Z,9.50
2023-04-04T21:26:30.161Z,9.50
2023-04-04T21:28:59.800Z,9.40
2023-04-04T21:31:30.785Z,9.40
2023-04-04T21:34:02.715Z,9.40
2023-04-04T21:36:32.713Z,9.40
2023-04-04T21:39:03.224Z,9.40
2023-04-04T21:41:32.691Z,9.40
2023-04-04T21:44:02.099Z,9.40
2023-04-04T21:46:33.293Z,9.40
2023-04-04T21:49:01.816Z,9.50
2023-04-04T21:51:31.368Z,9.50
2023-04-04T21:54:00.433Z,9.50
2023-04-04T21:56:31.517Z,9.50
2023-04-04T21:59:00.010Z,9.50
2023-04-04T22:01:29.039Z,9.50
2023-04-04T22:03:57.392Z,9.50
2023-04-04T22:06:27.479Z,9.50
2023-04-04T22:08:58.687Z,9.50
2023-04-04T22:11:28.190Z,9.50
2023-04-04T22:14:04.110Z,9.50
2023-04-04T22:16:37.009Z,9.50
2023-04-04T22:19:05.650Z,9.50
2023-04-04T22:21:37.060Z,9.40
2023-04-04T22:24:10.084Z,9.40
2023-04-04T22:26:41.709Z,9.40
2023-04-04T22:29:10.017Z,9.40
2023-04-04T22:31:38.452Z,9.40
2023-04-04T22:34:06.738Z,9.40
2023-04-04T22:36:35.549Z,9.40
2023-04-04T22:39:03.770Z,9.40
2023-04-04T22:41:33.254Z,9.40
2023-04-04T22:44:01.340Z,9.40
2023-04-04T22:46:30.052Z,9.30
2023-04-04T22:49:06.700Z,9.30
2023-04-04T22:51:43.042Z,9.30
2023-04-04T22:54:13.136Z,9.30
2023-04-04T22:56:42.826Z,9.30
2023-04-04T22:59:11.322Z,9.30
2023-04-04T23:01:39.603Z,9.30
2023-04-04T23:04:08.007Z,9.30
2023-04-04T23:06:38.410Z,9.30
2023-04-04T23:09:07.904Z,9.30
2023-04-04T23:11:36.665Z,9.30
2023-04-04T23:14:09.518Z,9.30
2023-04-04T23:16:38.263Z,9.30
2023-04-04T23:19:06.429Z,9.30
2023-04-04T23:21:34.603Z,9.30
2023-04-04T23:24:02.761Z,9.30
2023-04-04T23:26:31.348Z,9.20
2023-04-04T23:29:01.493Z,9.20
2023-04-04T23:31:32.126Z,9.20
2023-04-04T23:34:00.600Z,9.20
2023-04-04T23:36:28.799Z,9.20
2023-04-04T23:38:57.031Z,9.20
2023-04-04T23:41:25.157Z,9.20
2023-04-04T23:43:54.132Z,9.20
2023-04-04T23:46:22.581Z,9.10
2023-04-04T23:48:52.047Z,9.10
2023-04-04T23:51:21.463Z,9.10
2023-04-04T23:53:49.623Z,9.10
2023-04-04T23:56:17.854Z,9.00
2023-04-04T23:58:46.220Z,9.00
